sensor_id;sensor_type;location;lat;lon;timestamp;P1;durP1;ratioP1;P2;durP2;ratioP2
8297;SDS011;4187;42.778;23.242;2023-04-30T00:00:46;12.38;;;10.27;;
8297;SDS011;4187;42.778;23.242;2023-04-30T00:03:16;10.82;;;9.57;;
8297;SDS011;4187;42.778;23.242;2023-04-30T00:05:43;12.80;;;10.63;;
8297;SDS011;4187;42.778;23.242;2023-04-30T00:08:11;11.00;;;8.93;;
8297;SDS011;4187;42.778;23.242;2023-04-30T00:10:40;9.95;;;7.97;;
8297;SDS011;4187;42.778;23.242;2023-04-30T00:13:08;7.68;;;6.90;;
8297;SDS011;4187;42.778;23.242;2023-04-30T00:15:38;8.30;;;6.78;;
8297;SDS011;4187;42.778;23.242;2023-04-30T00:18:08;8.13;;;7.13;;
8297;SDS011;4187;42.778;23.242;2023-04-30T00:20:38;9.77;;;6.57;;
8297;SDS011;4187;42.778;23.242;2023-04-30T00:23:06;10.02;;;6.68;;
8297;SDS011;4187;42.778;23.242;2023-04-30T00:25:34;8.38;;;6.55;;
8297;SDS011;4187;42.778;23.242;2023-04-30T00:28:01;9.00;;;6.82;;
8297;SDS011;4187;42.778;23.242;2023-04-30T00:30:29;7.68;;;6.95;;
8297;SDS011;4187;42.778;23.242;2023-04-30T00:32:56;7.63;;;6.82;;
8297;SDS011;4187;42.778;23.242;2023-04-30T00:35:24;7.57;;;6.80;;
8297;SDS011;4187;42.778;23.242;2023-04-30T00:37:54;7.63;;;6.68;;
8297;SDS011;4187;42.778;23.242;2023-04-30T00:40:22;8.27;;;7.15;;
8297;SDS011;4187;42.778;23.242;2023-04-30T00:42:51;10.00;;;7.45;;
8297;SDS011;4187;42.778;23.242;2023-04-30T00:45:20;8.13;;;7.03;;
8297;SDS011;4187;42.778;23.242;2023-04-30T00:47:50;8.43;;;7.13;;
8297;SDS011;4187;42.778;23.242;2023-04-30T00:50:18;8.40;;;6.33;;
8297;SDS011;4187;42.778;23.242;2023-04-30T00:52:47;10.50;;;7.00;;
8297;SDS011;4187;42.778;23.242;2023-04-30T00:55:16;8.33;;;7.33;;
8297;SDS011;4187;42.778;23.242;2023-04-30T00:57:46;7.57;;;6.77;;
8297;SDS011;4187;42.778;23.242;2023-04-30T01:00:13;8.33;;;7.43;;
8297;SDS011;4187;42.778;23.242;2023-04-30T01:02:41;11.10;;;7.67;;
8297;SDS011;4187;42.778;23.242;2023-04-30T01:05:09;11.17;;;7.97;;
8297;SDS011;4187;42.778;23.242;2023-04-30T01:07:36;9.35;;;8.07;;
8297;SDS011;4187;42.778;23.242;2023-04-30T01:10:09;10.10;;;8.00;;
8297;SDS011;4187;42.778;23.242;2023-04-30T01:12:40;8.80;;;7.47;;
8297;SDS011;4187;42.778;23.242;2023-04-30T01:15:17;9.27;;;7.73;;
8297;SDS011;4187;42.778;23.242;2023-04-30T01:17:53;10.80;;;7.70;;
8297;SDS011;4187;42.778;23.242;2023-04-30T01:20:25;10.03;;;7.17;;
8297;SDS011;4187;42.778;23.242;2023-04-30T01:22:56;10.17;;;6.33;;
8297;SDS011;4187;42.778;23.242;2023-04-30T01:28:28;8.97;;;6.20;;
8297;SDS011;4187;42.778;23.242;2023-04-30T01:30:56;6.87;;;6.10;;
8297;SDS011;4187;42.778;23.242;2023-04-30T01:33:24;7.73;;;6.40;;
8297;SDS011;4187;42.778;23.242;2023-04-30T01:35:57;7.77;;;6.57;;
8297;SDS011;4187;42.778;23.242;2023-04-30T01:38:42;8.17;;;7.00;;
8297;SDS011;4187;42.778;23.242;2023-04-30T01:41:25;7.97;;;7.00;;
8297;SDS011;4187;42.778;23.242;2023-04-30T01:44:04;11.27;;;6.97;;
8297;SDS011;4187;42.778;23.242;2023-04-30T01:46:38;10.53;;;9.43;;
8297;SDS011;4187;42.778;23.242;2023-04-30T01:49:11;11.80;;;8.57;;
8297;SDS011;4187;42.778;23.242;2023-04-30T01:51:45;10.50;;;7.87;;
8297;SDS011;4187;42.778;23.242;2023-04-30T01:54:16;10.33;;;8.40;;
8297;SDS011;4187;42.778;23.242;2023-04-30T01:56:50;11.97;;;9.40;;
8297;SDS011;4187;42.778;23.242;2023-04-30T01:59:34;12.27;;;9.90;;
8297;SDS011;4187;42.778;23.242;2023-04-30T02:02:04;11.73;;;10.30;;
8297;SDS011;4187;42.778;23.242;2023-04-30T02:04:32;7.87;;;7.13;;
8297;SDS011;4187;42.778;23.242;2023-04-30T02:07:00;9.57;;;6.80;;
8297;SDS011;4187;42.778;23.242;2023-04-30T02:09:28;6.40;;;5.47;;
8297;SDS011;4187;42.778;23.242;2023-04-30T02:11:56;7.50;;;6.33;;
8297;SDS011;4187;42.778;23.242;2023-04-30T02:14:25;9.37;;;7.37;;
8297;SDS011;4187;42.778;23.242;2023-04-30T02:16:54;11.53;;;7.17;;
8297;SDS011;4187;42.778;23.242;2023-04-30T02:19:22;7.93;;;6.53;;
8297;SDS011;4187;42.778;23.242;2023-04-30T02:21:51;11.13;;;8.00;;
8297;SDS011;4187;42.778;23.242;2023-04-30T02:24:19;9.10;;;7.40;;
8297;SDS011;4187;42.778;23.242;2023-04-30T02:26:48;11.37;;;9.20;;
8297;SDS011;4187;42.778;23.242;2023-04-30T02:29:18;14.03;;;8.03;;
8297;SDS011;4187;42.778;23.242;2023-04-30T02:31:47;11.23;;;7.67;;
8297;SDS011;4187;42.778;23.242;2023-04-30T02:34:17;8.10;;;7.10;;
8297;SDS011;4187;42.778;23.242;2023-04-30T02:36:44;9.80;;;6.90;;
8297;SDS011;4187;42.778;23.242;2023-04-30T02:39:13;8.00;;;6.33;;
8297;SDS011;4187;42.778;23.242;2023-04-30T02:41:41;7.13;;;6.30;;
8297;SDS011;4187;42.778;23.242;2023-04-30T02:44:10;7.33;;;5.93;;
8297;SDS011;4187;42.778;23.242;2023-04-30T02:46:38;7.93;;;6.33;;
8297;SDS011;4187;42.778;23.242;2023-04-30T02:49:06;8.10;;;5.90;;
8297;SDS011;4187;42.778;23.242;2023-04-30T02:51:37;11.73;;;7.53;;
8297;SDS011;4187;42.778;23.242;2023-04-30T02:54:06;8.90;;;6.47;;
8297;SDS011;4187;42.778;23.242;2023-04-30T02:56:34;6.77;;;5.80;;
8297;SDS011;4187;42.778;23.242;2023-04-30T02:59:04;7.00;;;6.30;;
8297;SDS011;4187;42.778;23.242;2023-04-30T03:01:33;8.63;;;6.47;;
8297;SDS011;4187;42.778;23.242;2023-04-30T03:04:02;8.07;;;6.20;;
8297;SDS011;4187;42.778;23.242;2023-04-30T03:06:31;7.63;;;6.33;;
8297;SDS011;4187;42.778;23.242;2023-04-30T03:09:01;8.07;;;6.07;;
8297;SDS011;4187;42.778;23.242;2023-04-30T03:11:30;11.03;;;6.40;;
8297;SDS011;4187;42.778;23.242;2023-04-30T03:14:02;8.97;;;6.77;;
8297;SDS011;4187;42.778;23.242;2023-04-30T03:16:31;10.03;;;6.90;;
8297;SDS011;4187;42.778;23.242;2023-04-30T03:19:00;8.23;;;6.03;;
8297;SDS011;4187;42.778;23.242;2023-04-30T03:21:28;24.93;;;12.73;;
8297;SDS011;4187;42.778;23.242;2023-04-30T03:23:57;21.60;;;13.77;;
8297;SDS011;4187;42.778;23.242;2023-04-30T03:26:29;24.27;;;11.87;;
8297;SDS011;4187;42.778;23.242;2023-04-30T03:28:58;13.90;;;8.43;;
8297;SDS011;4187;42.778;23.242;2023-04-30T03:31:26;9.83;;;6.97;;
8297;SDS011;4187;42.778;23.242;2023-04-30T03:33:54;9.07;;;7.82;;
8297;SDS011;4187;42.778;23.242;2023-04-30T03:36:23;7.70;;;6.20;;
8297;SDS011;4187;42.778;23.242;2023-04-30T03:38:53;9.75;;;6.35;;
8297;SDS011;4187;42.778;23.242;2023-04-30T03:41:22;8.88;;;7.97;;
8297;SDS011;4187;42.778;23.242;2023-04-30T03:43:53;6.53;;;5.80;;
8297;SDS011;4187;42.778;23.242;2023-04-30T03:46:22;6.40;;;5.05;;
8297;SDS011;4187;42.778;23.242;2023-04-30T03:48:51;7.15;;;5.38;;
8297;SDS011;4187;42.778;23.242;2023-04-30T03:51:20;9.50;;;6.00;;
8297;SDS011;4187;42.778;23.242;2023-04-30T03:53:48;6.70;;;5.63;;
8297;SDS011;4187;42.778;23.242;2023-04-30T03:56:15;6.63;;;5.35;;
8297;SDS011;4187;42.778;23.242;2023-04-30T03:58:43;7.20;;;5.82;;
8297;SDS011;4187;42.778;23.242;2023-04-30T04:01:13;7.38;;;5.57;;
8297;SDS011;4187;42.778;23.242;2023-04-30T04:03:41;10.05;;;5.93;;
8297;SDS011;4187;42.778;23.242;2023-04-30T04:06:09;12.17;;;7.67;;
8297;SDS011;4187;42.778;23.242;2023-04-30T04:08:37;12.10;;;8.73;;
8297;SDS011;4187;42.778;23.242;2023-04-30T04:11:07;11.53;;;8.97;;
8297;SDS011;4187;42.778;23.242;2023-04-30T04:13:35;15.73;;;10.48;;
8297;SDS011;4187;42.778;23.242;2023-04-30T04:16:02;25.03;;;16.53;;
8297;SDS011;4187;42.778;23.242;2023-04-30T04:18:32;17.87;;;12.30;;
8297;SDS011;4187;42.778;23.242;2023-04-30T04:21:00;25.70;;;15.60;;
8297;SDS011;4187;42.778;23.242;2023-04-30T04:23:28;24.30;;;15.57;;
8297;SDS011;4187;42.778;23.242;2023-04-30T04:25:56;22.30;;;14.57;;
8297;SDS011;4187;42.778;23.242;2023-04-30T04:28:24;19.60;;;12.63;;
8297;SDS011;4187;42.778;23.242;2023-04-30T04:30:52;17.93;;;13.17;;
8297;SDS011;4187;42.778;23.242;2023-04-30T04:33:19;35.20;;;23.77;;
8297;SDS011;4187;42.778;23.242;2023-04-30T04:35:48;19.43;;;12.93;;
8297;SDS011;4187;42.778;23.242;2023-04-30T04:38:15;11.80;;;7.53;;
8297;SDS011;4187;42.778;23.242;2023-04-30T04:40:49;8.73;;;7.80;;
8297;SDS011;4187;42.778;23.242;2023-04-30T04:43:18;16.87;;;8.03;;
8297;SDS011;4187;42.778;23.242;2023-04-30T04:45:46;9.30;;;8.17;;
8297;SDS011;4187;42.778;23.242;2023-04-30T04:48:14;11.97;;;8.47;;
8297;SDS011;4187;42.778;23.242;2023-04-30T04:50:42;12.53;;;8.97;;
8297;SDS011;4187;42.778;23.242;2023-04-30T04:53:11;14.27;;;8.30;;
8297;SDS011;4187;42.778;23.242;2023-04-30T04:55:39;13.33;;;8.80;;
8297;SDS011;4187;42.778;23.242;2023-04-30T04:58:06;14.63;;;9.63;;
8297;SDS011;4187;42.778;23.242;2023-04-30T05:00:34;14.00;;;9.47;;
8297;SDS011;4187;42.778;23.242;2023-04-30T05:03:02;12.73;;;9.03;;
8297;SDS011;4187;42.778;23.242;2023-04-30T05:05:29;13.67;;;8.23;;
8297;SDS011;4187;42.778;23.242;2023-04-30T05:07:57;9.43;;;7.60;;
8297;SDS011;4187;42.778;23.242;2023-04-30T05:10:26;9.67;;;8.50;;
8297;SDS011;4187;42.778;23.242;2023-04-30T05:12:54;10.10;;;8.53;;
8297;SDS011;4187;42.778;23.242;2023-04-30T05:15:22;10.90;;;8.40;;
8297;SDS011;4187;42.778;23.242;2023-04-30T05:17:49;9.97;;;7.10;;
8297;SDS011;4187;42.778;23.242;2023-04-30T05:20:17;11.70;;;7.63;;
8297;SDS011;4187;42.778;23.242;2023-04-30T05:22:45;10.47;;;8.17;;
8297;SDS011;4187;42.778;23.242;2023-04-30T05:25:13;14.38;;;7.93;;
8297;SDS011;4187;42.778;23.242;2023-04-30T05:27:42;13.25;;;8.25;;
8297;SDS011;4187;42.778;23.242;2023-04-30T05:30:10;11.13;;;9.48;;
8297;SDS011;4187;42.778;23.242;2023-04-30T05:32:40;18.95;;;11.90;;
8297;SDS011;4187;42.778;23.242;2023-04-30T05:35:07;15.60;;;11.90;;
8297;SDS011;4187;42.778;23.242;2023-04-30T05:37:35;14.25;;;10.75;;
8297;SDS011;4187;42.778;23.242;2023-04-30T05:40:02;11.95;;;10.25;;
8297;SDS011;4187;42.778;23.242;2023-04-30T05:42:30;11.98;;;8.88;;
8297;SDS011;4187;42.778;23.242;2023-04-30T05:45:00;15.73;;;10.70;;
8297;SDS011;4187;42.778;23.242;2023-04-30T05:47:28;12.00;;;9.13;;
8297;SDS011;4187;42.778;23.242;2023-04-30T05:49:57;10.73;;;9.57;;
8297;SDS011;4187;42.778;23.242;2023-04-30T05:52:24;10.80;;;8.63;;
8297;SDS011;4187;42.778;23.242;2023-04-30T05:54:51;11.00;;;9.07;;
8297;SDS011;4187;42.778;23.242;2023-04-30T05:57:18;10.20;;;8.95;;
8297;SDS011;4187;42.778;23.242;2023-04-30T05:59:46;11.35;;;8.82;;
8297;SDS011;4187;42.778;23.242;2023-04-30T06:02:15;9.75;;;8.70;;
8297;SDS011;4187;42.778;23.242;2023-04-30T06:04:43;18.80;;;11.80;;
8297;SDS011;4187;42.778;23.242;2023-04-30T06:07:11;12.07;;;8.80;;
8297;SDS011;4187;42.778;23.242;2023-04-30T06:09:39;8.90;;;7.78;;
8297;SDS011;4187;42.778;23.242;2023-04-30T06:12:07;8.13;;;7.25;;
8297;SDS011;4187;42.778;23.242;2023-04-30T06:14:35;10.75;;;7.57;;
8297;SDS011;4187;42.778;23.242;2023-04-30T06:17:02;10.27;;;7.85;;
8297;SDS011;4187;42.778;23.242;2023-04-30T06:19:31;10.38;;;8.38;;
8297;SDS011;4187;42.778;23.242;2023-04-30T06:21:59;11.00;;;9.20;;
8297;SDS011;4187;42.778;23.242;2023-04-30T06:24:27;7.28;;;6.43;;
8297;SDS011;4187;42.778;23.242;2023-04-30T06:26:55;8.40;;;6.68;;
8297;SDS011;4187;42.778;23.242;2023-04-30T06:29:22;8.15;;;5.50;;
8297;SDS011;4187;42.778;23.242;2023-04-30T06:31:49;8.55;;;5.68;;
8297;SDS011;4187;42.778;23.242;2023-04-30T06:34:17;8.27;;;6.15;;
8297;SDS011;4187;42.778;23.242;2023-04-30T06:36:46;5.88;;;5.32;;
8297;SDS011;4187;42.778;23.242;2023-04-30T06:39:14;9.98;;;6.35;;
8297;SDS011;4187;42.778;23.242;2023-04-30T06:41:41;9.93;;;6.15;;
8297;SDS011;4187;42.778;23.242;2023-04-30T06:44:09;7.68;;;6.35;;
8297;SDS011;4187;42.778;23.242;2023-04-30T06:46:38;8.77;;;6.32;;
8297;SDS011;4187;42.778;23.242;2023-04-30T06:49:06;9.20;;;6.53;;
8297;SDS011;4187;42.778;23.242;2023-04-30T06:51:34;7.97;;;6.35;;
8297;SDS011;4187;42.778;23.242;2023-04-30T06:54:05;7.45;;;6.18;;
8297;SDS011;4187;42.778;23.242;2023-04-30T06:56:32;6.80;;;5.97;;
8297;SDS011;4187;42.778;23.242;2023-04-30T06:58:59;7.45;;;5.50;;
8297;SDS011;4187;42.778;23.242;2023-04-30T07:01:28;6.78;;;5.28;;
8297;SDS011;4187;42.778;23.242;2023-04-30T07:03:55;7.05;;;5.63;;
8297;SDS011;4187;42.778;23.242;2023-04-30T07:06:23;8.10;;;5.22;;
8297;SDS011;4187;42.778;23.242;2023-04-30T07:08:50;7.55;;;5.22;;
8297;SDS011;4187;42.778;23.242;2023-04-30T07:11:19;12.75;;;8.23;;
8297;SDS011;4187;42.778;23.242;2023-04-30T07:13:47;7.95;;;5.65;;
8297;SDS011;4187;42.778;23.242;2023-04-30T07:16:15;6.53;;;5.38;;
8297;SDS011;4187;42.778;23.242;2023-04-30T07:18:45;8.02;;;5.22;;
8297;SDS011;4187;42.778;23.242;2023-04-30T07:21:16;7.03;;;5.25;;
8297;SDS011;4187;42.778;23.242;2023-04-30T07:23:46;7.65;;;5.63;;
8297;SDS011;4187;42.778;23.242;2023-04-30T07:26:15;8.02;;;4.70;;
8297;SDS011;4187;42.778;23.242;2023-04-30T07:28:44;7.20;;;5.00;;
8297;SDS011;4187;42.778;23.242;2023-04-30T07:31:13;6.07;;;4.85;;
8297;SDS011;4187;42.778;23.242;2023-04-30T07:33:40;8.85;;;5.22;;
8297;SDS011;4187;42.778;23.242;2023-04-30T07:36:08;6.32;;;5.55;;
8297;SDS011;4187;42.778;23.242;2023-04-30T07:38:36;7.55;;;5.28;;
8297;SDS011;4187;42.778;23.242;2023-04-30T07:41:03;6.07;;;4.72;;
8297;SDS011;4187;42.778;23.242;2023-04-30T07:43:30;5.20;;;4.00;;
8297;SDS011;4187;42.778;23.242;2023-04-30T07:45:59;7.82;;;4.72;;
8297;SDS011;4187;42.778;23.242;2023-04-30T07:48:26;8.00;;;4.95;;
8297;SDS011;4187;42.778;23.242;2023-04-30T07:50:53;8.15;;;4.70;;
8297;SDS011;4187;42.778;23.242;2023-04-30T07:53:22;6.47;;;4.38;;
8297;SDS011;4187;42.778;23.242;2023-04-30T07:55:50;7.00;;;4.43;;
8297;SDS011;4187;42.778;23.242;2023-04-30T07:58:18;5.60;;;4.15;;
8297;SDS011;4187;42.778;23.242;2023-04-30T08:00:46;8.07;;;4.32;;
8297;SDS011;4187;42.778;23.242;2023-04-30T08:03:14;5.63;;;4.03;;
8297;SDS011;4187;42.778;23.242;2023-04-30T08:05:42;9.20;;;4.55;;
8297;SDS011;4187;42.778;23.242;2023-04-30T08:08:11;6.72;;;4.32;;
8297;SDS011;4187;42.778;23.242;2023-04-30T08:10:39;7.93;;;4.55;;
8297;SDS011;4187;42.778;23.242;2023-04-30T08:13:07;7.00;;;4.18;;
8297;SDS011;4187;42.778;23.242;2023-04-30T08:15:35;5.55;;;4.28;;
8297;SDS011;4187;42.778;23.242;2023-04-30T08:18:04;13.68;;;4.88;;
8297;SDS011;4187;42.778;23.242;2023-04-30T08:20:33;7.88;;;4.50;;
8297;SDS011;4187;42.778;23.242;2023-04-30T08:23:01;5.38;;;4.00;;
8297;SDS011;4187;42.778;23.242;2023-04-30T08:25:29;11.93;;;4.15;;
8297;SDS011;4187;42.778;23.242;2023-04-30T08:27:58;7.63;;;4.25;;
8297;SDS011;4187;42.778;23.242;2023-04-30T08:30:26;7.78;;;3.92;;
8297;SDS011;4187;42.778;23.242;2023-04-30T08:32:54;5.45;;;4.63;;
8297;SDS011;4187;42.778;23.242;2023-04-30T08:35:22;8.98;;;4.40;;
8297;SDS011;4187;42.778;23.242;2023-04-30T08:37:51;5.28;;;4.68;;
8297;SDS011;4187;42.778;23.242;2023-04-30T08:40:19;5.30;;;4.15;;
8297;SDS011;4187;42.778;23.242;2023-04-30T08:42:49;7.78;;;4.18;;
8297;SDS011;4187;42.778;23.242;2023-04-30T08:45:32;6.65;;;4.40;;
8297;SDS011;4187;42.778;23.242;2023-04-30T08:48:01;6.70;;;3.83;;
8297;SDS011;4187;42.778;23.242;2023-04-30T08:50:31;5.30;;;3.65;;
8297;SDS011;4187;42.778;23.242;2023-04-30T08:53:01;5.05;;;3.20;;
8297;SDS011;4187;42.778;23.242;2023-04-30T08:55:29;6.30;;;3.10;;
8297;SDS011;4187;42.778;23.242;2023-04-30T08:58:00;7.43;;;3.08;;
8297;SDS011;4187;42.778;23.242;2023-04-30T09:00:30;4.63;;;3.40;;
8297;SDS011;4187;42.778;23.242;2023-04-30T09:02:59;5.38;;;3.40;;
8297;SDS011;4187;42.778;23.242;2023-04-30T09:05:28;6.55;;;3.63;;
8297;SDS011;4187;42.778;23.242;2023-04-30T09:07:56;3.95;;;3.55;;
8297;SDS011;4187;42.778;23.242;2023-04-30T09:10:25;3.88;;;3.50;;
8297;SDS011;4187;42.778;23.242;2023-04-30T09:12:59;4.05;;;3.45;;
8297;SDS011;4187;42.778;23.242;2023-04-30T09:15:27;5.60;;;3.95;;
8297;SDS011;4187;42.778;23.242;2023-04-30T09:18:06;5.53;;;3.45;;
8297;SDS011;4187;42.778;23.242;2023-04-30T09:20:35;5.15;;;4.28;;
8297;SDS011;4187;42.778;23.242;2023-04-30T09:23:04;4.35;;;3.58;;
8297;SDS011;4187;42.778;23.242;2023-04-30T09:25:41;4.60;;;3.50;;
8297;SDS011;4187;42.778;23.242;2023-04-30T09:28:09;7.30;;;3.70;;
8297;SDS011;4187;42.778;23.242;2023-04-30T09:30:39;3.50;;;3.20;;
8297;SDS011;4187;42.778;23.242;2023-04-30T09:33:09;4.03;;;3.28;;
8297;SDS011;4187;42.778;23.242;2023-04-30T09:35:37;7.30;;;3.70;;
8297;SDS011;4187;42.778;23.242;2023-04-30T09:38:06;3.95;;;3.25;;
8297;SDS011;4187;42.778;23.242;2023-04-30T09:40:34;4.03;;;3.33;;
8297;SDS011;4187;42.778;23.242;2023-04-30T09:43:03;4.00;;;3.05;;
8297;SDS011;4187;42.778;23.242;2023-04-30T09:45:40;4.50;;;3.13;;
8297;SDS011;4187;42.778;23.242;2023-04-30T09:48:09;4.30;;;3.08;;
8297;SDS011;4187;42.778;23.242;2023-04-30T09:50:37;2.67;;;2.40;;
8297;SDS011;4187;42.778;23.242;2023-04-30T09:53:05;2.70;;;2.50;;
8297;SDS011;4187;42.778;23.242;2023-04-30T09:55:34;4.68;;;3.00;;
8297;SDS011;4187;42.778;23.242;2023-04-30T09:58:05;3.10;;;2.78;;
8297;SDS011;4187;42.778;23.242;2023-04-30T10:00:33;6.43;;;5.78;;
8297;SDS011;4187;42.778;23.242;2023-04-30T10:03:01;6.60;;;2.60;;
8297;SDS011;4187;42.778;23.242;2023-04-30T10:05:33;10.65;;;3.30;;
8297;SDS011;4187;42.778;23.242;2023-04-30T10:08:04;4.65;;;2.30;;
8297;SDS011;4187;42.778;23.242;2023-04-30T10:10:33;5.95;;;2.72;;
8297;SDS011;4187;42.778;23.242;2023-04-30T10:13:06;3.85;;;2.60;;
8297;SDS011;4187;42.778;23.242;2023-04-30T10:15:38;5.60;;;2.88;;
8297;SDS011;4187;42.778;23.242;2023-04-30T10:18:10;7.60;;;4.38;;
8297;SDS011;4187;42.778;23.242;2023-04-30T10:20:42;5.47;;;3.15;;
8297;SDS011;4187;42.778;23.242;2023-04-30T10:23:13;3.45;;;2.63;;
8297;SDS011;4187;42.778;23.242;2023-04-30T10:25:41;2.95;;;2.55;;
8297;SDS011;4187;42.778;23.242;2023-04-30T10:28:11;2.58;;;2.38;;
8297;SDS011;4187;42.778;23.242;2023-04-30T10:30:40;3.90;;;2.83;;
8297;SDS011;4187;42.778;23.242;2023-04-30T10:33:11;2.88;;;2.53;;
8297;SDS011;4187;42.778;23.242;2023-04-30T10:35:45;2.60;;;2.40;;
8297;SDS011;4187;42.778;23.242;2023-04-30T10:38:19;3.58;;;2.67;;
8297;SDS011;4187;42.778;23.242;2023-04-30T10:40:49;8.38;;;5.95;;
8297;SDS011;4187;42.778;23.242;2023-04-30T10:43:18;6.88;;;5.22;;
8297;SDS011;4187;42.778;23.242;2023-04-30T10:45:46;7.57;;;5.03;;
8297;SDS011;4187;42.778;23.242;2023-04-30T10:48:14;5.05;;;4.55;;
8297;SDS011;4187;42.778;23.242;2023-04-30T10:50:49;8.60;;;5.78;;
8297;SDS011;4187;42.778;23.242;2023-04-30T10:53:19;8.10;;;5.90;;
8297;SDS011;4187;42.778;23.242;2023-04-30T10:55:51;6.82;;;5.65;;
8297;SDS011;4187;42.778;23.242;2023-04-30T10:58:28;4.93;;;3.67;;
8297;SDS011;4187;42.778;23.242;2023-04-30T11:00:59;6.32;;;5.50;;
8297;SDS011;4187;42.778;23.242;2023-04-30T11:03:28;6.38;;;4.15;;
8297;SDS011;4187;42.778;23.242;2023-04-30T11:05:57;6.95;;;4.78;;
8297;SDS011;4187;42.778;23.242;2023-04-30T11:08:31;5.03;;;4.10;;
8297;SDS011;4187;42.778;23.242;2023-04-30T11:10:59;3.90;;;2.92;;
8297;SDS011;4187;42.778;23.242;2023-04-30T11:13:34;7.18;;;5.68;;
8297;SDS011;4187;42.778;23.242;2023-04-30T11:16:05;5.63;;;5.05;;
8297;SDS011;4187;42.778;23.242;2023-04-30T11:18:33;4.70;;;3.33;;
8297;SDS011;4187;42.778;23.242;2023-04-30T11:21:07;4.68;;;4.28;;
8297;SDS011;4187;42.778;23.242;2023-04-30T11:23:36;4.28;;;3.88;;
8297;SDS011;4187;42.778;23.242;2023-04-30T11:26:08;5.13;;;3.30;;
8297;SDS011;4187;42.778;23.242;2023-04-30T11:28:37;3.88;;;3.08;;
8297;SDS011;4187;42.778;23.242;2023-04-30T11:31:05;3.33;;;3.03;;
8297;SDS011;4187;42.778;23.242;2023-04-30T11:33:32;4.35;;;3.65;;
8297;SDS011;4187;42.778;23.242;2023-04-30T11:36:00;3.42;;;2.92;;
8297;SDS011;4187;42.778;23.242;2023-04-30T11:38:29;3.00;;;2.80;;
8297;SDS011;4187;42.778;23.242;2023-04-30T11:40:59;4.72;;;2.90;;
8297;SDS011;4187;42.778;23.242;2023-04-30T11:43:27;3.38;;;3.08;;
8297;SDS011;4187;42.778;23.242;2023-04-30T11:46:08;5.35;;;3.13;;
8297;SDS011;4187;42.778;23.242;2023-04-30T11:48:37;6.00;;;3.20;;
8297;SDS011;4187;42.778;23.242;2023-04-30T11:51:15;4.45;;;2.67;;
8297;SDS011;4187;42.778;23.242;2023-04-30T11:53:44;5.70;;;2.80;;
8297;SDS011;4187;42.778;23.242;2023-04-30T11:56:13;5.18;;;4.78;;
8297;SDS011;4187;42.778;23.242;2023-04-30T11:58:44;4.00;;;2.95;;
8297;SDS011;4187;42.778;23.242;2023-04-30T12:01:14;4.68;;;3.70;;
8297;SDS011;4187;42.778;23.242;2023-04-30T12:03:42;4.28;;;3.55;;
8297;SDS011;4187;42.778;23.242;2023-04-30T12:06:11;5.22;;;3.47;;
8297;SDS011;4187;42.778;23.242;2023-04-30T12:08:47;4.45;;;2.80;;
8297;SDS011;4187;42.778;23.242;2023-04-30T12:11:20;32.20;;;18.65;;
8297;SDS011;4187;42.778;23.242;2023-04-30T12:13:50;28.48;;;24.55;;
8297;SDS011;4187;42.778;23.242;2023-04-30T12:16:20;4.88;;;4.32;;
8297;SDS011;4187;42.778;23.242;2023-04-30T12:18:47;3.67;;;2.83;;
8297;SDS011;4187;42.778;23.242;2023-04-30T12:21:16;3.45;;;2.92;;
8297;SDS011;4187;42.778;23.242;2023-04-30T12:23:44;4.18;;;3.78;;
8297;SDS011;4187;42.778;23.242;2023-04-30T12:26:11;5.50;;;4.57;;
8297;SDS011;4187;42.778;23.242;2023-04-30T12:28:39;2.30;;;2.10;;
8297;SDS011;4187;42.778;23.242;2023-04-30T12:31:06;3.30;;;2.28;;
8297;SDS011;4187;42.778;23.242;2023-04-30T12:33:35;3.33;;;2.63;;
8297;SDS011;4187;42.778;23.242;2023-04-30T12:36:03;3.33;;;2.80;;
8297;SDS011;4187;42.778;23.242;2023-04-30T12:38:30;4.55;;;2.80;;
8297;SDS011;4187;42.778;23.242;2023-04-30T12:40:58;2.92;;;2.60;;
8297;SDS011;4187;42.778;23.242;2023-04-30T12:43:25;4.65;;;3.60;;
8297;SDS011;4187;42.778;23.242;2023-04-30T12:45:53;2.95;;;2.60;;
8297;SDS011;4187;42.778;23.242;2023-04-30T12:48:23;6.10;;;2.97;;
8297;SDS011;4187;42.778;23.242;2023-04-30T12:50:53;7.07;;;3.38;;
8297;SDS011;4187;42.778;23.242;2023-04-30T12:53:22;2.67;;;2.47;;
8297;SDS011;4187;42.778;23.242;2023-04-30T12:56:08;3.33;;;2.80;;
8297;SDS011;4187;42.778;23.242;2023-04-30T12:58:37;2.80;;;2.60;;
8297;SDS011;4187;42.778;23.242;2023-04-30T13:01:09;2.70;;;2.28;;
8297;SDS011;4187;42.778;23.242;2023-04-30T13:03:37;2.30;;;2.10;;
8297;SDS011;4187;42.778;23.242;2023-04-30T13:06:06;2.42;;;2.10;;
8297;SDS011;4187;42.778;23.242;2023-04-30T13:08:34;4.57;;;2.95;;
8297;SDS011;4187;42.778;23.242;2023-04-30T13:11:01;8.57;;;6.07;;
8297;SDS011;4187;42.778;23.242;2023-04-30T13:13:29;6.93;;;6.28;;
8297;SDS011;4187;42.778;23.242;2023-04-30T13:15:57;4.10;;;3.70;;
8297;SDS011;4187;42.778;23.242;2023-04-30T13:18:25;5.95;;;4.10;;
8297;SDS011;4187;42.778;23.242;2023-04-30T13:20:52;2.92;;;2.17;;
8297;SDS011;4187;42.778;23.242;2023-04-30T13:23:21;2.30;;;1.92;;
8297;SDS011;4187;42.778;23.242;2023-04-30T13:25:48;2.65;;;1.92;;
8297;SDS011;4187;42.778;23.242;2023-04-30T13:28:16;2.33;;;2.00;;
8297;SDS011;4187;42.778;23.242;2023-04-30T13:30:43;5.75;;;3.50;;
8297;SDS011;4187;42.778;23.242;2023-04-30T13:33:11;2.53;;;2.33;;
8297;SDS011;4187;42.778;23.242;2023-04-30T13:35:39;5.25;;;2.47;;
8297;SDS011;4187;42.778;23.242;2023-04-30T13:38:06;2.88;;;2.63;;
8297;SDS011;4187;42.778;23.242;2023-04-30T13:40:36;1.95;;;1.83;;
8297;SDS011;4187;42.778;23.242;2023-04-30T13:43:04;3.78;;;2.60;;
8297;SDS011;4187;42.778;23.242;2023-04-30T13:45:32;3.38;;;2.00;;
8297;SDS011;4187;42.778;23.242;2023-04-30T13:47:59;2.03;;;1.83;;
8297;SDS011;4187;42.778;23.242;2023-04-30T13:50:30;2.63;;;2.17;;
8297;SDS011;4187;42.778;23.242;2023-04-30T13:52:57;2.40;;;1.80;;
8297;SDS011;4187;42.778;23.242;2023-04-30T13:55:25;1.60;;;1.50;;
8297;SDS011;4187;42.778;23.242;2023-04-30T13:57:54;1.98;;;1.75;;
8297;SDS011;4187;42.778;23.242;2023-04-30T14:00:23;3.40;;;1.80;;
8297;SDS011;4187;42.778;23.242;2023-04-30T14:02:50;6.22;;;1.88;;
8297;SDS011;4187;42.778;23.242;2023-04-30T14:05:18;2.38;;;2.17;;
8297;SDS011;4187;42.778;23.242;2023-04-30T14:07:45;2.47;;;1.95;;
8297;SDS011;4187;42.778;23.242;2023-04-30T14:10:13;2.40;;;2.20;;
8297;SDS011;4187;42.778;23.242;2023-04-30T14:12:40;3.78;;;2.00;;
8297;SDS011;4187;42.778;23.242;2023-04-30T14:15:09;5.90;;;3.50;;
8297;SDS011;4187;42.778;23.242;2023-04-30T14:17:37;12.43;;;9.27;;
8297;SDS011;4187;42.778;23.242;2023-04-30T14:20:04;5.47;;;2.63;;
8297;SDS011;4187;42.778;23.242;2023-04-30T14:22:33;3.90;;;2.45;;
8297;SDS011;4187;42.778;23.242;2023-04-30T14:25:03;5.82;;;2.03;;
8297;SDS011;4187;42.778;23.242;2023-04-30T14:27:30;3.30;;;2.42;;
8297;SDS011;4187;42.778;23.242;2023-04-30T14:29:58;4.55;;;2.95;;
8297;SDS011;4187;42.778;23.242;2023-04-30T14:32:27;5.82;;;3.20;;
8297;SDS011;4187;42.778;23.242;2023-04-30T14:34:55;10.65;;;6.40;;
8297;SDS011;4187;42.778;23.242;2023-04-30T14:37:22;6.28;;;4.80;;
8297;SDS011;4187;42.778;23.242;2023-04-30T14:39:49;4.57;;;2.75;;
8297;SDS011;4187;42.778;23.242;2023-04-30T14:42:16;3.30;;;2.78;;
8297;SDS011;4187;42.778;23.242;2023-04-30T14:44:43;3.17;;;2.88;;
8297;SDS011;4187;42.778;23.242;2023-04-30T14:47:10;4.88;;;2.40;;
8297;SDS011;4187;42.778;23.242;2023-04-30T14:49:39;3.25;;;2.55;;
8297;SDS011;4187;42.778;23.242;2023-04-30T14:52:06;3.60;;;2.38;;
8297;SDS011;4187;42.778;23.242;2023-04-30T14:54:33;2.33;;;1.90;;
8297;SDS011;4187;42.778;23.242;2023-04-30T14:57:00;3.55;;;3.25;;
8297;SDS011;4187;42.778;23.242;2023-04-30T14:59:29;3.13;;;2.83;;
8297;SDS011;4187;42.778;23.242;2023-04-30T15:01:59;4.72;;;4.30;;
8297;SDS011;4187;42.778;23.242;2023-04-30T15:04:27;10.52;;;7.85;;
8297;SDS011;4187;42.778;23.242;2023-04-30T15:06:57;3.33;;;2.40;;
8297;SDS011;4187;42.778;23.242;2023-04-30T15:09:25;3.05;;;2.13;;
8297;SDS011;4187;42.778;23.242;2023-04-30T15:11:52;2.72;;;2.15;;